METAR AND TAF INFORMATION
METAR FOR LEMD
ADDS - METARS form results

(1400 UTC 20 April 2018)
Data provider http://aviationweather.gov/adds/metars/
 
METAR text: LEMD 201330Z VRB05KT 9999 SCT058 20/08 Q1019 NOSIG
Conditions at: LEMD (MADRID/BARAJAS , ES) observed 1330 UTC 20 April 2018
Temperature: 20.0°C (68°F)
Dewpoint: 8.0°C (46°F) [RH = 46%]
Pressure (altimeter): 30.09 inches Hg (1019.0 mb)
Winds: variable direction winds at 6 MPH (5 knots; 2.6 m/s)
Visibility: 6 or more miles (10+ km)
Ceiling: at least 12,000 feet AGL
Clouds: scattered clouds at 5800 feet AGL
Weather: no significant weather observed at this time

Forecast for: LEMD (MADRID/BARAJAS , ES)
Text: TAF LEMD 201100Z 2012/2118 14010KT 9999 SCT040 TX22/2016Z TN09/2106Z
Forecast period: 1200 to 2100 UTC 20 April 2018
Forecast type: FROM: standard forecast or significant change
Winds: from the SE (140 degrees) at 12 MPH (10 knots; 5.2 m/s)
Visibility: 6 or more miles (10+ km)
Clouds: scattered clouds at 4000 feet AGL
Weather: no significant weather forecast for this period
Forecast for: LEMD (MADRID/BARAJAS , ES)
Text: TAF LEMD 201100Z 2012/2118 14010KT 9999 SCT040 TX22/2016Z TN09/2106Z
Forecast period: 1200 to 2100 UTC 20 April 2018
Forecast type: FROM: standard forecast or significant change
Winds: from the SE (140 degrees) at 12 MPH (10 knots; 5.2 m/s)
Visibility: 6 or more miles (10+ km)
Clouds: scattered clouds at 4000 feet AGL
Weather: no significant weather forecast for this period
Forecast for: LEMD (MADRID/BARAJAS , ES)
Text: TAF LEMD 201100Z 2012/2118 14010KT 9999 SCT040 TX22/2016Z TN09/2106Z
Forecast period: 1200 to 1900 UTC 20 April 2018
Forecast type: TEMPORARY: The following changes expected for less than half the time period
Winds: from the SE (140 degrees) at 17 MPH (15 knots; 7.8 m/s)
gusting to 29 MPH (25 knots; 13.0 m/s)
Weather: no significant weather forecast for this period
Forecast for: LEMD (MADRID/BARAJAS , ES)
Text: TAF LEMD 201100Z 2012/2118 14010KT 9999 SCT040 TX22/2016Z TN09/2106Z
Forecast period: 1200 to 1900 UTC 20 April 2018
Forecast type: TEMPORARY: The following changes expected for less than half the time period
Winds: from the SE (140 degrees) at 17 MPH (15 knots; 7.8 m/s)
gusting to 29 MPH (25 knots; 13.0 m/s)
Weather: no significant weather forecast for this period
Forecast for: LEMD (MADRID/BARAJAS , ES)
Text: TAF LEMD 201100Z 2012/2118 14010KT 9999 SCT040 TX22/2016Z TN09/2106Z
Forecast period: 1300 to 1900 UTC 20 April 2018
Forecast type: TEMPORARY: The following changes expected for less than half the time period
Clouds: few clouds at 4000 feet AGL
Weather: no significant weather forecast for this period
Forecast for: LEMD (MADRID/BARAJAS , ES)
Text: TAF LEMD 201100Z 2012/2118 14010KT 9999 SCT040 TX22/2016Z TN09/2106Z
Forecast period: 1300 to 1900 UTC 20 April 2018
Forecast type: TEMPORARY: The following changes expected for less than half the time period
Clouds: few clouds at 4000 feet AGL
Weather: no significant weather forecast for this period
Forecast for: LEMD (MADRID/BARAJAS , ES)
Text: TAF LEMD 201100Z 2012/2118 14010KT 9999 SCT040 TX22/2016Z TN09/2106Z
Forecast period: 2100 UTC 20 April 2018 to 1800 UTC 21 April 2018
Forecast type: BECOMING: Conditions expected to become as follows by 2300 UTC 20 April 2018
Winds: variable direction winds at 6 MPH (5 knots; 2.6 m/s)
Visibility: 6 or more miles (10+ km)
Clouds: scattered clouds at 4000 feet AGL
Weather: no significant weather forecast for this period
Forecast for: LEMD (MADRID/BARAJAS , ES)
Text: TAF LEMD 201100Z 2012/2118 14010KT 9999 SCT040 TX22/2016Z TN09/2106Z
Forecast period: 2100 UTC 20 April 2018 to 1800 UTC 21 April 2018
Forecast type: BECOMING: Conditions expected to become as follows by 2300 UTC 20 April 2018
Winds: variable direction winds at 6 MPH (5 knots; 2.6 m/s)
Visibility: 6 or more miles (10+ km)
Clouds: scattered clouds at 4000 feet AGL
Weather: no significant weather forecast for this period
Forecast for: LEMD (MADRID/BARAJAS , ES)
Text: TAF LEMD 201100Z 2012/2118 14010KT 9999 SCT040 TX22/2016Z TN09/2106Z
Forecast period: 1100 to 1800 UTC 21 April 2018
Forecast type: TEMPORARY: The following changes expected for less than half the time period
Winds: from the SSE (160 degrees) at 12 MPH (10 knots; 5.2 m/s)
Weather: no significant weather forecast for this period
Forecast for: LEMD (MADRID/BARAJAS , ES)
Text: TAF LEMD 201100Z 2012/2118 14010KT 9999 SCT040 TX22/2016Z TN09/2106Z
Forecast period: 1100 to 1800 UTC 21 April 2018
Forecast type: TEMPORARY: The following changes expected for less than half the time period
Winds: from the SSE (160 degrees) at 12 MPH (10 knots; 5.2 m/s)
Weather: no significant weather forecast for this period

 AIRPORT MAP

 RUNWAY INFORMATION
Runway 14L Runway length 11483 ft Runway width 197 ft
Runway elevation 1942 ft Runway displaced threshold 0 ft Runway heading 144
Runway 32R Runway length 11483 ft Runway width 197 ft
Runway elevation 1876 ft Runway displaced threshold 1640 ft Runway heading 324
Runway 14R Runway length 13084 ft Runway width 197 ft
Runway elevation 1995 ft Runway displaced threshold 0 ft Runway heading 144
Runway 32L Runway length 13084 ft Runway width 197 ft
Runway elevation 1909 ft Runway displaced threshold 3445 ft Runway heading 324
Runway 18L Runway length 11483 ft Runway width 197 ft
Runway elevation 1919 ft Runway displaced threshold 1640 ft Runway heading 181
Runway 36R Runway length 11483 ft Runway width 197 ft
Runway elevation 1942 ft Runway displaced threshold 0 ft Runway heading 1
Runway 18R Runway length 13711 ft Runway width 197 ft
Runway elevation 1998 ft Runway displaced threshold 3232 ft Runway heading 181
Runway 36L Runway length 13711 ft Runway width 197 ft
Runway elevation 1985 ft Runway displaced threshold 0 ft Runway heading 2

 AIRPORT FREQUENCIES
Type APP Name MADRID APP Frequency 127.5 MHZ
Type ATIS Name ATIS Frequency 118.25 MHZ
Type ATIS DEP Name ATIS Depar Frequency 130.85 MHZ
Type CLD Name Delivery E Frequency 130.075 MHZ
Type CLD Name Delivery W Frequency 130.35 MHZ
Type EMR Name FIRE Frequency 122.975 MHZ
Type GND Name GND Frequency 121.85 MHZ
Type TWR Name TWR 36L Frequency 118.07 MHZ
Type TWR Name TWR 14R Frequency 118.15 MHZ
Type TWR Name TWR 36R Frequency 118.67 MHZ
Type TWR Name TWR 14L Frequency 118.975 MHZ

 AIRPORT NEAR NAVIGATION AIDS
Type NDB Name Alcobendas Frequency 417 KHZ
Type VOR-DME Name Barajas Frequency 116450 KHZ
Type VOR-DME Name Perales Frequency 116950 KHZ
Type VOR-DME Name S.S.rRyes Frequency 117850 KHZ



Powered by Virtual Airlines Manager [v2.6.2]